Pep, Texas
Current Conditions -  °F | °C
As of 1:53 AM on Thursday 29 Jan 2015 (Local Time) from KLBB Reporting Station
Few Clouds Few Clouds  
Wind Chill:   Ceiling: Unl
Heat Index:   Visibility: 10mi
Dew Point:   Wind: 9mph
Humidity: 61%   Direction: 350°N
Pressure: 30.16"   Gusts: NA
Location:  33.81°N, 102.56°W
Report Text: KLBB 290753Z 35008KT 10SM FEW300 08/01 A3016 RMK AO2 SLP182 T00830011
Loading
Personal Weather Stations






























Interactive Weather Map New forecast layout! Learn more

10-Day Weather Forecast

Advertisements
Track Severe Weather on mobile